createdAt,value
2018-01-30T00:01:10.916Z,8.70
2018-01-30T00:03:39.875Z,11.00
2018-01-30T00:06:08.826Z,5.13
2018-01-30T00:08:37.012Z,8.10
2018-01-30T00:11:05.179Z,6.27
2018-01-30T00:13:33.367Z,6.30
2018-01-30T00:16:01.645Z,6.50
2018-01-30T00:18:29.817Z,6.37
2018-01-30T00:20:57.993Z,12.53
2018-01-30T00:23:26.165Z,10.37
2018-01-30T00:25:54.333Z,5.67
2018-01-30T00:28:22.559Z,6.53
2018-01-30T00:30:50.737Z,8.00
2018-01-30T00:33:18.922Z,6.10
2018-01-30T00:35:47.133Z,4.83
2018-01-30T00:38:15.314Z,4.27
2018-01-30T00:40:43.487Z,4.17
2018-01-30T00:43:11.683Z,5.77
2018-01-30T00:45:39.881Z,8.17
2018-01-30T00:48:08.043Z,9.43
2018-01-30T00:50:36.249Z,5.67
2018-01-30T00:53:04.417Z,10.10
2018-01-30T00:55:32.732Z,9.83
2018-01-30T00:58:01.694Z,10.17
2018-01-30T01:00:29.887Z,7.70
2018-01-30T01:02:58.090Z,8.73
2018-01-30T01:05:26.342Z,10.20
2018-01-30T01:07:54.523Z,11.13
2018-01-30T01:10:22.712Z,9.47
2018-01-30T01:12:50.926Z,8.37
2018-01-30T01:15:19.122Z,6.97
2018-01-30T01:17:48.100Z,4.57
2018-01-30T01:20:16.348Z,7.37
2018-01-30T01:22:44.546Z,7.03
2018-01-30T01:25:12.753Z,7.30
2018-01-30T01:27:40.961Z,4.80
2018-01-30T01:30:09.148Z,9.00
2018-01-30T01:32:37.426Z,6.27
2018-01-30T01:35:05.649Z,6.63
2018-01-30T01:37:34.604Z,7.17
2018-01-30T01:40:02.832Z,6.03
2018-01-30T01:42:31.819Z,6.07
2018-01-30T01:45:00.766Z,8.53
2018-01-30T01:47:28.944Z,5.87
2018-01-30T01:49:57.172Z,8.83
2018-01-30T01:52:26.119Z,5.47
2018-01-30T01:54:54.285Z,9.77
2018-01-30T01:57:22.471Z,5.10
2018-01-30T01:59:50.690Z,3.70
2018-01-30T02:02:18.945Z,6.10
2018-01-30T02:04:47.148Z,5.00
2018-01-30T02:07:15.313Z,7.10
2018-01-30T02:09:44.259Z,6.43
2018-01-30T02:12:12.473Z,6.60
2018-01-30T02:14:40.809Z,9.93
2018-01-30T02:17:09.017Z,6.07
2018-01-30T02:19:37.235Z,9.33
2018-01-30T02:22:06.167Z,7.40
2018-01-30T02:24:34.372Z,6.23
2018-01-30T02:27:02.590Z,4.57
2018-01-30T02:29:30.777Z,5.43
2018-01-30T02:31:58.961Z,5.03
2018-01-30T02:34:27.172Z,4.50
2018-01-30T02:36:55.345Z,10.23
2018-01-30T02:39:23.507Z,9.93
2018-01-30T02:41:51.717Z,8.23
2018-01-30T02:44:20.660Z,7.60
2018-01-30T02:46:48.867Z,7.50
2018-01-30T02:49:17.070Z,8.33
2018-01-30T02:51:46.015Z,6.93
2018-01-30T02:54:14.191Z,8.33
2018-01-30T02:56:42.385Z,9.63
2018-01-30T02:59:10.562Z,7.80
2018-01-30T03:01:38.727Z,11.97
2018-01-30T03:04:06.944Z,13.30
2018-01-30T03:06:35.883Z,7.93
2018-01-30T03:09:04.048Z,8.17
2018-01-30T03:11:32.304Z,9.33
2018-01-30T03:14:00.514Z,10.00
2018-01-30T03:16:28.694Z,8.87
2018-01-30T03:18:56.900Z,8.63
2018-01-30T03:21:26.444Z,12.57
2018-01-30T03:23:54.623Z,13.10
2018-01-30T03:26:22.856Z,17.97
2018-01-30T03:28:51.028Z,9.07
2018-01-30T03:31:19.194Z,12.17
2018-01-30T03:33:47.410Z,9.13
2018-01-30T03:36:15.589Z,9.37
2018-01-30T03:38:43.768Z,10.30
2018-01-30T03:41:12.738Z,7.17
2018-01-30T03:43:40.965Z,5.83
2018-01-30T03:46:09.150Z,10.53
2018-01-30T03:48:37.394Z,8.33
2018-01-30T03:51:05.617Z,5.93
2018-01-30T03:53:33.939Z,7.57
2018-01-30T03:56:02.144Z,6.67
2018-01-30T03:58:30.320Z,8.20
2018-01-30T04:00:58.496Z,7.53
2018-01-30T04:03:26.726Z,12.60
2018-01-30T04:05:55.672Z,13.73
2018-01-30T04:08:23.870Z,15.87
2018-01-30T04:10:52.090Z,15.40
2018-01-30T04:13:20.346Z,10.70
2018-01-30T04:15:49.286Z,6.77
2018-01-30T04:18:17.504Z,10.30
2018-01-30T04:20:45.686Z,13.07
2018-01-30T04:23:14.627Z,9.63
2018-01-30T04:25:42.881Z,10.17
2018-01-30T04:28:11.060Z,12.23
2018-01-30T04:30:39.257Z,15.43
2018-01-30T04:33:07.492Z,11.07
2018-01-30T04:35:36.447Z,11.10
2018-01-30T04:38:04.627Z,6.53
2018-01-30T04:40:32.840Z,9.73
2018-01-30T04:43:01.856Z,8.60
2018-01-30T04:45:30.040Z,8.10
2018-01-30T04:47:58.355Z,8.10
2018-01-30T04:50:26.540Z,7.40
2018-01-30T04:52:54.720Z,7.17
2018-01-30T04:55:23.700Z,9.63
2018-01-30T04:57:53.390Z,10.37
2018-01-30T05:00:21.588Z,8.00
2018-01-30T05:02:50.554Z,10.90
2018-01-30T05:05:18.742Z,11.97
2018-01-30T05:07:46.935Z,15.20
2018-01-30T05:10:15.153Z,9.27
2018-01-30T05:12:43.337Z,13.33
2018-01-30T05:15:11.507Z,17.57
2018-01-30T05:17:39.754Z,15.80
2018-01-30T05:20:08.713Z,24.40
2018-01-30T05:22:36.882Z,13.77
2018-01-30T05:25:05.109Z,14.93
2018-01-30T05:27:34.046Z,10.67
2018-01-30T05:30:02.244Z,20.10
2018-01-30T05:32:30.460Z,18.40
2018-01-30T05:34:58.639Z,13.53
2018-01-30T05:37:26.825Z,14.30
2018-01-30T05:39:55.037Z,17.43
2018-01-30T05:42:23.225Z,16.83
2018-01-30T05:44:51.387Z,13.97
2018-01-30T05:47:19.719Z,14.67
2018-01-30T05:49:47.889Z,20.83
2018-01-30T05:52:16.071Z,16.80
2018-01-30T05:54:44.824Z,12.67
2018-01-30T05:57:12.999Z,15.77
2018-01-30T05:59:41.199Z,20.07
2018-01-30T06:02:09.421Z,17.60
2018-01-30T06:04:37.603Z,18.73
2018-01-30T06:07:05.792Z,12.93
2018-01-30T06:09:34.014Z,18.90
2018-01-30T06:12:02.206Z,19.03
2018-01-30T06:14:30.397Z,25.47
2018-01-30T06:16:58.611Z,18.67
2018-01-30T06:19:26.878Z,20.77
2018-01-30T06:21:55.050Z,19.33
2018-01-30T06:24:24.022Z,18.93
2018-01-30T06:26:52.189Z,20.07
2018-01-30T06:29:20.380Z,23.03
2018-01-30T06:31:48.596Z,19.20
2018-01-30T06:34:16.798Z,43.77
2018-01-30T06:36:44.982Z,35.13
2018-01-30T06:39:13.190Z,25.73
2018-01-30T06:41:41.392Z,18.83
2018-01-30T06:44:10.358Z,30.03
2018-01-30T06:46:38.561Z,47.77
2018-01-30T06:49:07.504Z,38.87
2018-01-30T06:51:35.792Z,35.67
2018-01-30T06:54:04.001Z,138.50
2018-01-30T06:56:32.934Z,72.37
2018-01-30T06:59:01.117Z,21.07
2018-01-30T07:01:29.349Z,28.40
2018-01-30T07:03:58.282Z,19.10
2018-01-30T07:06:26.454Z,22.60
2018-01-30T07:08:54.727Z,50.43
2018-01-30T07:11:23.024Z,37.13
2018-01-30T07:13:51.201Z,25.87
2018-01-30T07:16:19.560Z,21.13
2018-01-30T07:18:47.749Z,59.47
2018-01-30T07:21:15.941Z,64.50
2018-01-30T07:23:44.177Z,36.23
2018-01-30T07:26:12.362Z,96.27
2018-01-30T07:28:40.586Z,129.60
2018-01-30T07:31:08.801Z,82.03
2018-01-30T07:33:37.055Z,59.53
2018-01-30T07:36:06.085Z,38.07
2018-01-30T07:38:34.498Z,19.87
2018-01-30T07:41:02.792Z,17.70
2018-01-30T07:43:31.133Z,19.17
2018-01-30T07:46:00.266Z,20.40
2018-01-30T07:48:28.483Z,20.10
2018-01-30T07:50:56.707Z,19.83
2018-01-30T07:53:24.985Z,21.93
2018-01-30T07:55:53.198Z,36.57
2018-01-30T07:58:22.163Z,21.90
2018-01-30T08:00:50.426Z,19.70
2018-01-30T08:03:18.633Z,22.83
2018-01-30T08:05:47.626Z,22.33
2018-01-30T08:08:16.012Z,20.30
2018-01-30T08:10:45.031Z,24.53
2018-01-30T08:13:13.222Z,24.97
2018-01-30T08:15:41.486Z,20.47
2018-01-30T08:18:09.694Z,20.50
2018-01-30T08:20:38.209Z,26.03
2018-01-30T08:23:07.173Z,20.33
2018-01-30T08:25:35.428Z,19.30
2018-01-30T08:28:03.667Z,22.73
2018-01-30T08:30:32.635Z,19.63
2018-01-30T08:33:00.814Z,21.10
2018-01-30T08:35:29.010Z,16.53
2018-01-30T08:37:57.966Z,23.53
2018-01-30T08:40:26.962Z,23.50
2018-01-30T08:42:55.307Z,20.13
2018-01-30T08:45:23.643Z,20.13
2018-01-30T08:47:51.866Z,22.60
2018-01-30T08:50:20.120Z,16.70
2018-01-30T08:52:48.322Z,16.40
2018-01-30T08:55:16.562Z,21.33
2018-01-30T08:57:48.510Z,23.13
2018-01-30T09:00:16.742Z,15.50
2018-01-30T09:02:44.973Z,15.70
2018-01-30T09:05:13.966Z,14.93
2018-01-30T09:07:42.292Z,20.07
2018-01-30T09:10:11.298Z,16.77
2018-01-30T09:12:39.519Z,13.53
2018-01-30T09:15:08.650Z,13.73
2018-01-30T09:17:37.102Z,19.77
2018-01-30T09:20:06.045Z,14.77
2018-01-30T09:22:34.265Z,11.97
2018-01-30T09:25:03.217Z,14.70
2018-01-30T09:27:31.453Z,15.67
2018-01-30T09:29:59.665Z,14.73
2018-01-30T09:32:27.948Z,17.47
2018-01-30T09:34:56.147Z,15.53
2018-01-30T09:37:24.351Z,14.03
2018-01-30T09:42:54.049Z,18.97
2018-01-30T09:45:22.325Z,14.00
2018-01-30T09:47:50.513Z,13.63
2018-01-30T09:50:18.710Z,16.47
2018-01-30T09:52:47.687Z,16.93
2018-01-30T09:55:16.647Z,12.60
2018-01-30T09:57:44.869Z,17.13
2018-01-30T10:00:13.842Z,13.80
2018-01-30T10:02:42.032Z,14.17
2018-01-30T10:05:11.018Z,10.23
2018-01-30T10:10:40.367Z,13.33
2018-01-30T10:13:08.548Z,15.07
2018-01-30T10:15:36.762Z,15.53
2018-01-30T10:18:04.966Z,10.53
2018-01-30T10:20:33.140Z,12.73
2018-01-30T10:23:02.147Z,17.53
2018-01-30T10:25:31.120Z,13.83
2018-01-30T10:27:59.318Z,10.17
2018-01-30T10:30:28.281Z,12.63
2018-01-30T10:32:56.514Z,12.70
2018-01-30T10:35:25.490Z,10.00
2018-01-30T10:37:55.390Z,15.67
2018-01-30T10:40:24.387Z,13.70
2018-01-30T10:42:52.600Z,10.63
2018-01-30T10:45:20.778Z,15.30
2018-01-30T10:47:48.986Z,11.57
2018-01-30T10:50:17.174Z,11.37
2018-01-30T10:52:45.379Z,14.60
2018-01-30T10:55:14.359Z,16.03
2018-01-30T10:57:42.546Z,16.70
2018-01-30T11:00:10.965Z,14.53
2018-01-30T11:02:39.216Z,13.70
2018-01-30T11:05:07.473Z,14.23
2018-01-30T11:07:36.424Z,14.27
2018-01-30T11:10:04.651Z,16.00
2018-01-30T11:12:33.655Z,12.43
2018-01-30T11:15:01.943Z,15.63
2018-01-30T11:17:30.152Z,12.90
2018-01-30T11:19:58.373Z,15.23
2018-01-30T11:22:27.361Z,14.90
2018-01-30T11:24:56.343Z,12.60
2018-01-30T11:27:24.550Z,10.07
2018-01-30T11:29:52.839Z,14.77
2018-01-30T11:32:21.072Z,13.60
2018-01-30T11:34:50.128Z,15.07
2018-01-30T11:37:18.384Z,11.97
2018-01-30T11:39:46.591Z,15.47
2018-01-30T11:42:14.816Z,14.63
2018-01-30T11:44:43.797Z,11.83
2018-01-30T11:47:12.760Z,11.03
2018-01-30T11:49:41.108Z,12.73
2018-01-30T11:52:09.348Z,13.50
2018-01-30T11:54:37.868Z,13.47
2018-01-30T11:57:06.052Z,14.20
2018-01-30T11:59:34.338Z,15.33
2018-01-30T12:02:02.587Z,14.50
2018-01-30T12:04:31.560Z,18.93
2018-01-30T12:07:00.530Z,13.10
2018-01-30T12:09:28.720Z,14.40
2018-01-30T12:11:56.978Z,12.30
2018-01-30T12:14:25.163Z,16.13
2018-01-30T12:16:53.399Z,11.43
2018-01-30T12:19:21.767Z,11.40
2018-01-30T12:21:49.974Z,12.00
2018-01-30T12:24:19.050Z,17.73
2018-01-30T12:26:47.263Z,10.30
2018-01-30T12:29:15.455Z,10.37
2018-01-30T12:31:44.436Z,10.37
2018-01-30T12:34:12.771Z,9.53
2018-01-30T12:36:41.053Z,12.50
2018-01-30T12:39:09.285Z,9.63
2018-01-30T12:41:37.640Z,8.80
2018-01-30T12:44:07.327Z,9.13
2018-01-30T12:46:35.551Z,9.53
2018-01-30T12:49:03.752Z,6.90
2018-01-30T12:51:31.937Z,7.97
2018-01-30T12:54:00.153Z,10.20
2018-01-30T12:56:28.383Z,11.20
2018-01-30T12:58:57.413Z,13.93
2018-01-30T13:01:25.660Z,9.27
2018-01-30T13:03:53.921Z,9.73
2018-01-30T13:06:22.117Z,11.10
2018-01-30T13:08:50.351Z,6.60
2018-01-30T13:11:19.320Z,10.33
2018-01-30T13:13:47.524Z,10.07
2018-01-30T13:16:16.525Z,9.87
2018-01-30T13:18:45.043Z,7.90
2018-01-30T13:21:13.306Z,8.57
2018-01-30T13:23:41.515Z,8.63
2018-01-30T13:26:09.770Z,9.97
2018-01-30T13:28:38.039Z,7.90
2018-01-30T13:31:06.230Z,10.27
2018-01-30T13:33:34.607Z,9.87
2018-01-30T13:36:02.866Z,10.80
2018-01-30T13:38:31.074Z,9.07
2018-01-30T13:41:00.129Z,11.67
2018-01-30T13:43:28.333Z,9.63
2018-01-30T13:45:56.513Z,12.43
2018-01-30T13:48:24.850Z,12.00
2018-01-30T13:50:53.870Z,11.70
2018-01-30T13:53:22.102Z,10.57
2018-01-30T13:55:50.293Z,9.77
2018-01-30T13:58:19.292Z,12.70
2018-01-30T14:00:48.339Z,13.50
2018-01-30T14:03:16.546Z,11.83
2018-01-30T14:05:45.530Z,9.93
2018-01-30T14:08:13.758Z,10.07
2018-01-30T14:10:42.016Z,10.20
2018-01-30T14:13:10.290Z,11.93
2018-01-30T14:15:38.786Z,7.63
2018-01-30T14:18:07.010Z,9.13
2018-01-30T14:20:35.240Z,11.97
2018-01-30T14:23:03.484Z,12.77
2018-01-30T14:25:32.444Z,9.60
2018-01-30T14:28:00.647Z,12.87
2018-01-30T14:30:29.621Z,9.23
2018-01-30T14:32:58.153Z,10.07
2018-01-30T14:35:26.353Z,8.63
2018-01-30T14:37:54.568Z,8.07
2018-01-30T14:40:23.515Z,15.47
2018-01-30T14:42:51.736Z,11.70
2018-01-30T14:45:19.945Z,11.27
2018-01-30T14:47:48.930Z,9.43
2018-01-30T14:50:17.950Z,7.70
2018-01-30T14:52:46.905Z,10.93
2018-01-30T14:55:15.105Z,9.13
2018-01-30T14:57:43.329Z,8.20
2018-01-30T15:00:11.549Z,7.43
2018-01-30T15:02:40.518Z,10.33
2018-01-30T15:05:08.755Z,9.20
2018-01-30T15:07:37.786Z,7.47
2018-01-30T15:10:06.801Z,8.10
2018-01-30T15:12:34.978Z,9.47
2018-01-30T15:15:03.950Z,8.40
2018-01-30T15:17:32.952Z,9.40
2018-01-30T15:20:01.155Z,13.80
2018-01-30T15:22:29.636Z,9.30
2018-01-30T15:24:57.904Z,14.67
2018-01-30T15:27:26.854Z,14.53
2018-01-30T15:29:55.058Z,12.20
2018-01-30T15:32:23.260Z,12.87
2018-01-30T15:34:51.467Z,11.00
2018-01-30T15:37:19.691Z,11.33
2018-01-30T15:39:47.946Z,13.87
2018-01-30T15:42:16.157Z,10.17
2018-01-30T15:44:44.374Z,8.43
2018-01-30T15:47:12.753Z,10.63
2018-01-30T15:49:40.982Z,8.70
2018-01-30T15:52:09.192Z,10.67
2018-01-30T15:54:37.393Z,10.80
2018-01-30T15:57:05.610Z,11.80
2018-01-30T15:59:34.580Z,12.20
2018-01-30T16:02:04.433Z,19.43
2018-01-30T16:04:33.457Z,17.60
2018-01-30T16:07:02.400Z,23.83
2018-01-30T16:09:30.671Z,20.53
2018-01-30T16:11:58.923Z,15.47
2018-01-30T16:14:27.961Z,16.47
2018-01-30T16:16:56.961Z,11.17
2018-01-30T16:19:25.919Z,14.47
2018-01-30T16:21:54.152Z,11.70
2018-01-30T16:24:22.374Z,12.73
2018-01-30T16:26:50.619Z,9.73
2018-01-30T16:29:19.003Z,7.93
2018-01-30T16:31:47.225Z,14.83
2018-01-30T16:34:15.439Z,9.47
2018-01-30T16:36:43.685Z,14.27
2018-01-30T16:39:12.822Z,14.07
2018-01-30T16:41:41.105Z,11.60
2018-01-30T16:44:09.344Z,11.60
2018-01-30T16:46:38.352Z,14.17
2018-01-30T16:49:06.554Z,15.60
2018-01-30T16:51:34.827Z,12.83
2018-01-30T16:54:03.052Z,14.53
2018-01-30T16:56:31.306Z,14.70
2018-01-30T16:58:59.528Z,11.97
2018-01-30T17:01:27.844Z,14.33
2018-01-30T17:03:56.061Z,15.00
2018-01-30T17:06:24.260Z,20.17
2018-01-30T17:08:52.476Z,12.97
2018-01-30T17:11:20.679Z,16.10
2018-01-30T17:13:50.445Z,16.00
2018-01-30T17:16:18.692Z,15.97
2018-01-30T17:18:47.915Z,15.20
2018-01-30T17:21:16.887Z,13.70
2018-01-30T17:23:45.854Z,24.50
2018-01-30T17:26:14.083Z,16.40
2018-01-30T17:28:42.279Z,14.07
2018-01-30T17:31:10.524Z,15.53
2018-01-30T17:33:38.832Z,26.30
2018-01-30T17:36:07.095Z,23.00
2018-01-30T17:38:35.325Z,25.67
2018-01-30T17:41:04.297Z,21.80
2018-01-30T17:43:32.511Z,19.00
2018-01-30T17:46:01.508Z,19.90
2018-01-30T17:48:30.472Z,15.73
2018-01-30T17:50:58.701Z,17.43
2018-01-30T17:53:26.926Z,17.20
2018-01-30T17:55:55.121Z,17.70
2018-01-30T17:58:24.078Z,18.47
2018-01-30T18:00:52.423Z,18.60
2018-01-30T18:03:20.632Z,17.77
2018-01-30T18:05:48.863Z,25.37
2018-01-30T18:08:17.098Z,22.60
2018-01-30T18:10:45.307Z,19.67
2018-01-30T18:13:14.295Z,19.27
2018-01-30T18:15:43.270Z,17.67
2018-01-30T18:18:11.526Z,14.53
2018-01-30T18:20:39.849Z,14.20
2018-01-30T18:23:09.939Z,16.17
2018-01-30T18:25:38.273Z,16.33
2018-01-30T18:28:06.498Z,15.93
2018-01-30T18:30:34.736Z,19.83
2018-01-30T18:33:02.966Z,12.73
2018-01-30T18:35:32.107Z,19.30
2018-01-30T18:38:06.780Z,17.47
2018-01-30T18:40:35.212Z,14.10
2018-01-30T18:43:03.400Z,17.80
2018-01-30T18:45:31.589Z,21.93
2018-01-30T18:47:59.819Z,17.10
2018-01-30T18:50:28.032Z,13.07
2018-01-30T18:52:56.281Z,17.80
2018-01-30T18:55:24.497Z,22.17
2018-01-30T18:57:52.709Z,20.40
2018-01-30T19:00:21.690Z,23.17
2018-01-30T19:02:50.716Z,20.70
2018-01-30T19:05:18.975Z,20.23
2018-01-30T19:07:47.954Z,17.93
2018-01-30T19:10:16.242Z,15.33
2018-01-30T19:12:45.226Z,17.20
2018-01-30T19:15:13.436Z,19.67
2018-01-30T19:17:41.712Z,17.37
2018-01-30T19:20:09.947Z,17.53
2018-01-30T19:22:38.323Z,15.97
2018-01-30T19:25:06.530Z,18.23
2018-01-30T19:27:35.190Z,14.73
2018-01-30T19:30:03.389Z,16.57
2018-01-30T19:32:32.518Z,17.33
2018-01-30T19:35:00.810Z,17.03
2018-01-30T19:37:29.008Z,18.30
2018-01-30T19:39:57.450Z,17.67
2018-01-30T19:42:25.636Z,17.87
2018-01-30T19:44:53.969Z,18.83
2018-01-30T19:47:22.963Z,19.60
2018-01-30T19:49:51.915Z,19.03
2018-01-30T19:52:20.136Z,22.17
2018-01-30T19:54:49.487Z,17.20
2018-01-30T19:57:17.686Z,21.73
2018-01-30T19:59:47.439Z,19.03
2018-01-30T20:02:15.712Z,20.43
2018-01-30T20:04:44.673Z,29.27
2018-01-30T20:07:13.317Z,23.10
2018-01-30T20:09:41.555Z,19.40
2018-01-30T20:12:10.588Z,20.07
2018-01-30T20:14:38.790Z,17.20
2018-01-30T20:17:07.007Z,21.10
2018-01-30T20:19:35.973Z,23.50
2018-01-30T20:22:04.147Z,22.80
2018-01-30T20:24:32.377Z,31.30
2018-01-30T20:27:00.620Z,23.67
2018-01-30T20:29:29.115Z,27.77
2018-01-30T20:31:58.220Z,28.27
2018-01-30T20:34:26.441Z,30.50
2018-01-30T20:36:54.665Z,27.23
2018-01-30T20:39:23.639Z,26.93
2018-01-30T20:41:52.695Z,29.13
2018-01-30T20:44:20.887Z,27.80
2018-01-30T20:46:49.087Z,28.37
2018-01-30T20:49:18.078Z,30.80
2018-01-30T20:51:46.400Z,31.60
2018-01-30T20:54:14.597Z,32.50
2018-01-30T20:56:42.860Z,30.93
2018-01-30T20:59:11.062Z,34.00
2018-01-30T21:01:39.281Z,39.37
2018-01-30T21:04:07.552Z,30.70
2018-01-30T21:06:36.527Z,28.60
2018-01-30T21:09:04.746Z,33.57
2018-01-30T21:11:32.946Z,35.47
2018-01-30T21:14:01.163Z,32.27
2018-01-30T21:16:30.303Z,35.30
2018-01-30T21:18:58.520Z,34.77
2018-01-30T21:21:27.025Z,33.63
2018-01-30T21:23:56.970Z,32.93
2018-01-30T21:26:25.294Z,33.40
2018-01-30T21:28:53.532Z,30.27
2018-01-30T21:31:22.820Z,35.50
2018-01-30T21:33:51.044Z,81.17
2018-01-30T21:36:19.292Z,69.30
2018-01-30T21:38:47.672Z,82.10
2018-01-30T21:41:15.873Z,83.47
2018-01-30T21:43:44.110Z,78.97
2018-01-30T21:46:12.337Z,70.67
2018-01-30T21:48:40.547Z,56.77
2018-01-30T21:51:08.852Z,70.07
2018-01-30T21:53:37.041Z,64.43
2018-01-30T21:56:05.229Z,61.47
2018-01-30T21:58:33.455Z,77.87
2018-01-30T22:01:01.682Z,83.50
2018-01-30T22:03:29.887Z,62.00
2018-01-30T22:05:58.112Z,62.77
2018-01-30T22:08:26.316Z,53.47
2018-01-30T22:10:54.516Z,50.77
2018-01-30T22:13:23.490Z,59.37
2018-01-30T22:15:51.687Z,46.00
2018-01-30T22:18:20.656Z,42.60
2018-01-30T22:20:48.895Z,62.87
2018-01-30T22:23:17.096Z,54.00
2018-01-30T22:25:45.298Z,34.60
2018-01-30T22:28:13.630Z,40.20
2018-01-30T22:30:41.815Z,33.13
2018-01-30T22:33:10.044Z,40.77
2018-01-30T22:35:38.350Z,35.83
2018-01-30T22:38:06.551Z,31.60
2018-01-30T22:40:34.767Z,35.07
2018-01-30T22:43:03.720Z,32.70
2018-01-30T22:45:31.922Z,40.43
